createdAt,value
2018-08-20T00:00:45.536Z,20.90
2018-08-20T00:03:13.765Z,20.90
2018-08-20T00:07:06.509Z,20.80
2018-08-20T00:09:40.066Z,20.60
2018-08-20T00:12:09.338Z,20.30
2018-08-20T00:14:37.784Z,20.30
2018-08-20T00:17:05.984Z,20.40
2018-08-20T00:19:34.243Z,20.40
2018-08-20T00:22:02.476Z,20.40
2018-08-20T00:24:30.632Z,20.40
2018-08-20T00:27:00.126Z,20.40
2018-08-20T00:29:28.306Z,20.40
2018-08-20T00:31:56.505Z,20.30
2018-08-20T00:34:24.671Z,20.30
2018-08-20T00:36:52.814Z,20.30
2018-08-20T00:39:21.006Z,20.20
2018-08-20T00:41:49.155Z,20.30
2018-08-20T00:44:17.963Z,20.20
2018-08-20T00:46:46.740Z,20.30
2018-08-20T00:49:16.170Z,20.20
2018-08-20T00:51:44.476Z,20.30
2018-08-20T00:54:12.701Z,20.00
2018-08-20T00:56:40.875Z,20.00
2018-08-20T00:59:09.185Z,20.00
2018-08-20T01:01:37.442Z,20.00
2018-08-20T01:04:05.599Z,19.90
2018-08-20T01:06:33.778Z,19.90
2018-08-20T01:09:01.914Z,19.90
2018-08-20T01:11:30.128Z,20.00
2018-08-20T01:13:58.294Z,19.90
2018-08-20T01:16:26.548Z,19.80
2018-08-20T01:18:54.756Z,19.90
2018-08-20T01:21:22.934Z,19.90
2018-08-20T01:23:51.115Z,19.90
2018-08-20T01:26:19.265Z,19.80
2018-08-20T01:28:47.451Z,19.60
2018-08-20T01:31:15.623Z,19.60
2018-08-20T01:33:43.823Z,19.70
2018-08-20T01:36:13.082Z,19.80
2018-08-20T01:38:41.280Z,19.80
2018-08-20T01:41:09.446Z,19.70
2018-08-20T01:43:37.626Z,19.60
2018-08-20T01:46:05.794Z,19.70
2018-08-20T01:48:33.986Z,19.50
2018-08-20T01:51:02.288Z,19.60
2018-08-20T01:53:30.707Z,19.70
2018-08-20T01:55:58.892Z,19.40
2018-08-20T01:58:27.072Z,19.50
2018-08-20T02:00:55.251Z,19.50
2018-08-20T02:03:23.414Z,19.50
2018-08-20T02:05:51.575Z,19.60
2018-08-20T02:08:19.746Z,19.70
2018-08-20T02:10:48.069Z,19.70
2018-08-20T02:13:16.309Z,19.60
2018-08-20T02:15:44.471Z,19.60
2018-08-20T02:18:12.648Z,19.60
2018-08-20T02:20:40.839Z,19.70
2018-08-20T02:23:09.024Z,19.60
2018-08-20T02:25:37.295Z,19.70
2018-08-20T02:28:05.864Z,19.80
2018-08-20T02:30:34.043Z,19.80
2018-08-20T02:33:02.198Z,19.70
2018-08-20T02:35:30.400Z,19.80
2018-08-20T02:37:58.578Z,19.70
2018-08-20T02:40:26.826Z,19.80
2018-08-20T02:42:55.031Z,19.80
2018-08-20T02:45:23.200Z,19.70
2018-08-20T02:47:51.367Z,19.60
2018-08-20T02:50:26.142Z,19.70
2018-08-20T02:52:54.339Z,19.60
2018-08-20T02:55:22.520Z,19.60
2018-08-20T02:57:50.664Z,19.50
2018-08-20T03:00:18.917Z,19.60
2018-08-20T03:02:47.180Z,19.40
2018-08-20T03:05:15.431Z,19.40
2018-08-20T03:07:43.613Z,19.30
2018-08-20T03:10:12.889Z,19.20
2018-08-20T03:12:41.585Z,19.20
2018-08-20T03:15:10.600Z,19.10
2018-08-20T03:17:38.744Z,19.00
2018-08-20T03:20:07.257Z,19.20
2018-08-20T03:22:35.584Z,19.20
2018-08-20T03:25:04.299Z,19.10
2018-08-20T03:27:32.481Z,19.00
2018-08-20T03:30:00.789Z,19.00
2018-08-20T03:32:29.024Z,19.00
2018-08-20T03:34:57.187Z,19.00
2018-08-20T03:37:25.389Z,19.10
2018-08-20T03:39:53.575Z,19.10
2018-08-20T03:42:21.714Z,19.10
2018-08-20T03:44:49.921Z,19.10
2018-08-20T03:47:18.199Z,19.10
2018-08-20T03:49:46.461Z,19.10
2018-08-20T03:52:14.605Z,19.00
2018-08-20T03:54:45.759Z,18.80
2018-08-20T03:57:13.911Z,19.00
2018-08-20T04:02:10.077Z,18.90
2018-08-20T04:07:07.271Z,18.90
2018-08-20T04:09:35.876Z,19.00
2018-08-20T04:12:05.403Z,19.00
2018-08-20T04:14:33.611Z,19.00
2018-08-20T04:17:01.793Z,18.90
2018-08-20T04:19:30.315Z,18.90
2018-08-20T04:21:58.612Z,18.90
2018-08-20T04:24:26.856Z,18.90
2018-08-20T04:26:55.119Z,18.90
2018-08-20T04:29:23.403Z,19.00
2018-08-20T04:31:51.631Z,18.90
2018-08-20T04:34:19.856Z,18.90
2018-08-20T04:36:48.119Z,18.90
2018-08-20T04:39:16.351Z,18.90
2018-08-20T04:41:44.563Z,19.00
2018-08-20T04:44:12.838Z,19.00
2018-08-20T04:46:41.075Z,18.90
2018-08-20T04:49:09.247Z,18.90
2018-08-20T04:51:37.427Z,18.80
2018-08-20T04:54:05.772Z,18.90
2018-08-20T04:56:33.988Z,18.80
2018-08-20T04:59:02.180Z,18.80
2018-08-20T05:01:30.540Z,18.80
2018-08-20T05:06:26.735Z,18.80
2018-08-20T05:08:54.890Z,18.80
2018-08-20T05:11:23.099Z,18.90
2018-08-20T05:13:51.366Z,18.90
2018-08-20T05:16:19.537Z,19.00
2018-08-20T05:18:47.820Z,19.00
2018-08-20T05:21:15.951Z,19.00
2018-08-20T05:23:44.181Z,19.00
2018-08-20T05:26:12.452Z,19.00
2018-08-20T05:28:40.722Z,19.00
2018-08-20T05:31:08.987Z,19.00
2018-08-20T05:33:37.276Z,19.20
2018-08-20T05:36:05.528Z,19.30
2018-08-20T05:38:33.723Z,19.40
2018-08-20T05:41:01.980Z,19.50
2018-08-20T05:43:30.266Z,19.70
2018-08-20T05:45:58.537Z,19.70
2018-08-20T05:48:26.794Z,19.90
2018-08-20T05:50:55.048Z,19.90
2018-08-20T05:53:23.274Z,20.00
2018-08-20T05:55:51.595Z,20.10
2018-08-20T05:58:19.806Z,20.30
2018-08-20T06:00:48.032Z,20.40
2018-08-20T06:03:16.317Z,20.50
2018-08-20T06:08:12.648Z,20.70
2018-08-20T06:10:40.928Z,20.70
2018-08-20T06:13:09.155Z,20.90
2018-08-20T06:15:37.426Z,21.10
2018-08-20T06:18:06.045Z,21.20
2018-08-20T06:20:34.359Z,21.30
2018-08-20T06:23:02.655Z,21.50
2018-08-20T06:25:30.997Z,21.60
2018-08-20T06:27:59.200Z,21.90
2018-08-20T06:30:27.386Z,21.90
2018-08-20T06:32:55.524Z,22.10
2018-08-20T06:35:23.679Z,22.20
2018-08-20T06:37:51.852Z,22.50
2018-08-20T06:40:20.031Z,22.70
2018-08-20T06:42:48.236Z,22.90
2018-08-20T06:45:17.215Z,23.10
2018-08-20T06:47:46.232Z,23.20
2018-08-20T06:50:15.080Z,23.50
2018-08-20T06:52:44.099Z,23.60
2018-08-20T06:55:13.282Z,23.90
2018-08-20T06:57:41.735Z,24.20
2018-08-20T07:00:11.067Z,24.20
2018-08-20T07:02:39.337Z,24.70
2018-08-20T07:05:08.120Z,24.80
2018-08-20T07:07:37.607Z,25.10
2018-08-20T07:10:07.486Z,25.20
2018-08-20T07:12:36.014Z,25.50
2018-08-20T07:15:04.675Z,25.50
2018-08-20T07:20:00.796Z,25.60
2018-08-20T07:22:28.988Z,25.80
2018-08-20T07:24:57.204Z,25.90
2018-08-20T07:27:25.695Z,26.00
2018-08-20T07:29:53.897Z,26.10
2018-08-20T07:32:22.251Z,26.30
2018-08-20T07:34:50.486Z,26.50
2018-08-20T07:37:18.696Z,26.60
2018-08-20T07:39:48.018Z,26.70
2018-08-20T07:42:16.244Z,26.70
2018-08-20T07:44:45.129Z,26.80
2018-08-20T07:47:13.353Z,26.90
2018-08-20T07:49:41.567Z,26.90
2018-08-20T07:52:10.732Z,27.10
2018-08-20T07:54:39.773Z,27.40
2018-08-20T07:57:09.271Z,27.50
2018-08-20T07:59:37.652Z,27.30
2018-08-20T08:02:06.456Z,27.50
2018-08-20T08:04:34.698Z,27.50
2018-08-20T08:07:02.924Z,27.70
2018-08-20T08:09:31.143Z,28.10
2018-08-20T08:11:59.385Z,28.10
2018-08-20T08:14:27.648Z,28.20
2018-08-20T08:19:24.883Z,28.30
2018-08-20T08:21:53.097Z,28.30
2018-08-20T08:24:21.311Z,28.40
2018-08-20T08:26:49.588Z,28.50
2018-08-20T08:29:17.828Z,28.70
2018-08-20T08:31:46.039Z,28.80
2018-08-20T08:34:14.271Z,28.60
2018-08-20T08:36:42.578Z,28.70
2018-08-20T08:39:11.606Z,28.80
2018-08-20T08:41:40.041Z,28.80
2018-08-20T08:44:08.696Z,28.90
2018-08-20T08:46:36.942Z,28.90
2018-08-20T08:49:05.455Z,29.10
2018-08-20T08:51:33.757Z,29.20
2018-08-20T08:54:02.025Z,29.20
2018-08-20T08:56:30.295Z,29.20
2018-08-20T08:58:58.544Z,29.20
2018-08-20T09:01:26.763Z,29.20
2018-08-20T09:03:55.055Z,29.20
2018-08-20T09:06:23.333Z,29.20
2018-08-20T09:08:51.531Z,29.30
2018-08-20T09:11:20.048Z,29.40
2018-08-20T09:13:48.308Z,29.40
2018-08-20T09:16:16.513Z,29.60
2018-08-20T09:18:44.696Z,29.70
2018-08-20T09:23:40.840Z,29.70
2018-08-20T09:28:36.247Z,29.60
2018-08-20T09:31:04.498Z,29.80
2018-08-20T09:33:32.736Z,29.90
2018-08-20T09:36:01.010Z,30.10
2018-08-20T09:38:29.269Z,30.10
2018-08-20T09:40:57.500Z,30.30
2018-08-20T09:43:25.705Z,30.30
2018-08-20T09:45:53.916Z,30.20
2018-08-20T09:48:22.111Z,30.20
2018-08-20T09:50:50.335Z,30.00
2018-08-20T09:53:18.613Z,30.10
2018-08-20T09:55:46.897Z,30.30
2018-08-20T09:58:15.107Z,30.30
2018-08-20T10:00:43.362Z,30.40
2018-08-20T10:03:11.589Z,30.30
2018-08-20T10:12:42.663Z,30.30
2018-08-20T10:15:11.031Z,29.80
2018-08-20T10:17:39.248Z,30.40
2018-08-20T10:20:09.449Z,30.50
2018-08-20T10:22:37.673Z,30.70
2018-08-20T10:25:06.365Z,30.70
2018-08-20T10:27:34.644Z,30.80
2018-08-20T10:30:02.922Z,30.90
2018-08-20T10:32:31.850Z,30.80
2018-08-20T10:35:00.325Z,30.70
2018-08-20T10:37:28.556Z,30.60
2018-08-20T10:42:24.659Z,30.70
2018-08-20T10:44:53.394Z,30.80
2018-08-20T10:47:22.111Z,30.90
2018-08-20T10:49:50.304Z,30.50
2018-08-20T10:52:18.484Z,31.20
2018-08-20T10:54:46.633Z,31.30
2018-08-20T10:57:14.790Z,31.30
2018-08-20T10:59:42.964Z,31.10
2018-08-20T11:02:11.241Z,31.10
2018-08-20T11:04:39.619Z,30.90
2018-08-20T11:07:07.784Z,31.00
2018-08-20T11:09:35.962Z,31.00
2018-08-20T11:12:04.129Z,31.10
2018-08-20T11:14:32.362Z,31.20
2018-08-20T11:17:00.599Z,31.20
2018-08-20T11:19:28.915Z,31.30
2018-08-20T11:21:57.098Z,31.30
2018-08-20T11:24:25.284Z,31.30
2018-08-20T11:26:53.447Z,31.30
2018-08-20T11:29:21.672Z,31.30
2018-08-20T11:31:49.835Z,31.30
2018-08-20T11:34:18.017Z,31.20
2018-08-20T11:36:46.234Z,31.10
2018-08-20T11:39:14.331Z,31.00
2018-08-20T11:41:42.511Z,30.90
2018-08-20T11:44:10.920Z,31.00
2018-08-20T11:46:39.082Z,30.90
2018-08-20T11:49:07.279Z,30.90
2018-08-20T11:51:35.440Z,31.00
2018-08-20T11:54:03.667Z,31.00
2018-08-20T11:56:31.856Z,31.10
2018-08-20T11:59:00.072Z,31.10
2018-08-20T12:01:28.198Z,31.20
2018-08-20T12:03:56.417Z,31.10
2018-08-20T12:06:25.804Z,31.00
2018-08-20T12:08:53.973Z,31.10
2018-08-20T12:16:18.410Z,31.30
2018-08-20T12:18:46.583Z,31.30
2018-08-20T12:21:14.765Z,31.30
2018-08-20T12:23:43.072Z,31.30
2018-08-20T12:26:11.384Z,31.30
2018-08-20T12:28:39.599Z,31.20
2018-08-20T12:31:07.832Z,31.00
2018-08-20T12:33:36.036Z,31.00
2018-08-20T12:36:04.316Z,31.10
2018-08-20T12:38:32.499Z,31.20
2018-08-20T12:41:00.718Z,31.10
2018-08-20T12:43:28.943Z,31.10
2018-08-20T12:45:57.256Z,31.10
2018-08-20T12:48:25.549Z,30.90
2018-08-20T12:50:53.774Z,31.10
2018-08-20T12:53:21.970Z,31.10
2018-08-20T12:55:50.235Z,31.10
2018-08-20T12:58:18.462Z,30.80
2018-08-20T13:00:46.744Z,30.50
2018-08-20T13:03:14.948Z,30.60
2018-08-20T13:05:43.244Z,30.60
2018-08-20T13:08:11.504Z,30.70
2018-08-20T13:10:39.705Z,30.80
2018-08-20T13:15:35.964Z,30.90
2018-08-20T13:20:32.162Z,31.00
2018-08-20T13:23:00.390Z,31.00
2018-08-20T13:25:28.590Z,31.10
2018-08-20T13:27:56.871Z,31.00
2018-08-20T13:30:25.039Z,31.00
2018-08-20T13:32:53.212Z,31.10
2018-08-20T13:35:21.493Z,31.10
2018-08-20T13:37:49.659Z,31.10
2018-08-20T13:40:17.827Z,31.10
2018-08-20T13:42:46.034Z,31.10
2018-08-20T13:45:14.253Z,31.00
2018-08-20T13:47:42.428Z,31.20
2018-08-20T13:50:15.061Z,31.20
2018-08-20T13:52:45.656Z,31.30
2018-08-20T13:55:13.923Z,31.20
2018-08-20T13:57:45.796Z,31.20
2018-08-20T14:00:15.248Z,31.10
2018-08-20T14:02:43.537Z,31.20
2018-08-20T14:05:11.753Z,31.10
2018-08-20T14:08:43.193Z,31.00
2018-08-20T14:11:11.393Z,31.00
2018-08-20T14:13:39.544Z,31.00
2018-08-20T14:16:07.722Z,31.10
2018-08-20T14:18:35.947Z,31.00
2018-08-20T14:21:09.702Z,31.10
2018-08-20T14:23:37.931Z,31.10
2018-08-20T14:26:06.193Z,31.10
2018-08-20T14:28:34.396Z,31.20
2018-08-20T14:31:02.679Z,31.30
2018-08-20T14:33:30.920Z,31.30
2018-08-20T14:35:59.165Z,31.30
2018-08-20T14:38:27.371Z,31.20
2018-08-20T14:40:55.710Z,31.20
2018-08-20T14:43:23.922Z,31.10
2018-08-20T14:45:57.652Z,31.30
2018-08-20T14:48:25.903Z,31.10
2018-08-20T14:53:22.134Z,31.10
2018-08-20T14:55:50.331Z,31.00
2018-08-20T14:58:18.560Z,31.00
2018-08-20T15:00:46.791Z,31.10
2018-08-20T15:03:14.996Z,31.10
2018-08-20T15:05:43.214Z,31.10
2018-08-20T15:08:11.860Z,31.00
2018-08-20T15:10:40.104Z,31.00
2018-08-20T15:13:08.331Z,31.00
2018-08-20T15:15:36.760Z,31.00
2018-08-20T15:18:04.859Z,31.00
2018-08-20T15:20:33.056Z,31.10
2018-08-20T15:23:01.352Z,31.10
2018-08-20T15:25:29.631Z,31.10
2018-08-20T15:27:57.809Z,31.00
2018-08-20T15:30:26.024Z,31.00
2018-08-20T15:32:54.236Z,30.90
2018-08-20T15:35:22.467Z,30.90
2018-08-20T15:37:50.711Z,31.00
2018-08-20T15:40:18.989Z,30.90
2018-08-20T15:42:47.267Z,30.80
2018-08-20T15:45:15.495Z,30.90
2018-08-20T15:47:43.783Z,30.80
2018-08-20T15:50:12.095Z,30.80
2018-08-20T15:55:08.401Z,30.80
2018-08-20T15:57:36.751Z,30.60
2018-08-20T16:00:06.377Z,30.60
2018-08-20T16:02:34.594Z,30.70
2018-08-20T16:05:02.864Z,30.80
2018-08-20T16:07:31.151Z,30.90
2018-08-20T16:09:59.425Z,30.90
2018-08-20T16:12:27.619Z,30.80
2018-08-20T16:14:55.829Z,30.80
2018-08-20T16:17:24.149Z,30.70
2018-08-20T16:19:52.412Z,30.70
2018-08-20T16:22:20.623Z,30.70
2018-08-20T16:24:48.865Z,30.60
2018-08-20T16:27:17.238Z,30.70
2018-08-20T16:29:45.454Z,30.60
2018-08-20T16:32:13.701Z,30.60
2018-08-20T16:34:42.009Z,30.60
2018-08-20T16:37:10.235Z,30.50
2018-08-20T16:39:38.495Z,30.50
2018-08-20T16:42:06.656Z,30.60
2018-08-20T16:44:34.979Z,30.40
2018-08-20T16:47:03.234Z,30.40
2018-08-20T16:51:59.583Z,30.40
2018-08-20T16:54:27.868Z,30.40
2018-08-20T16:59:24.226Z,30.40
2018-08-20T17:01:52.474Z,30.30
2018-08-20T17:04:31.027Z,30.30
2018-08-20T17:07:00.552Z,30.20
2018-08-20T17:09:29.146Z,30.30
2018-08-20T17:11:57.364Z,30.30
2018-08-20T17:14:25.611Z,30.20
2018-08-20T17:16:54.067Z,30.20
2018-08-20T17:19:22.306Z,30.20
2018-08-20T17:21:50.498Z,30.20
2018-08-20T17:24:40.761Z,30.10
2018-08-20T17:27:09.469Z,30.00
2018-08-20T17:29:37.749Z,29.90
2018-08-20T17:32:07.289Z,29.90
2018-08-20T17:34:38.459Z,29.80
2018-08-20T17:37:06.705Z,29.70
2018-08-20T17:39:39.939Z,29.80
2018-08-20T17:42:08.233Z,29.70
2018-08-20T17:44:36.539Z,29.70
2018-08-20T17:47:04.768Z,29.70
2018-08-20T17:49:33.064Z,29.60
2018-08-20T17:52:01.346Z,29.30
2018-08-20T17:54:30.083Z,29.10
2018-08-20T17:56:58.306Z,29.00
2018-08-20T17:59:26.580Z,28.90
2018-08-20T18:01:54.820Z,28.70
2018-08-20T18:04:23.027Z,28.80
2018-08-20T18:06:53.764Z,28.60
2018-08-20T18:09:22.028Z,28.60
2018-08-20T18:11:52.363Z,28.40
2018-08-20T18:14:21.879Z,28.20
2018-08-20T18:16:50.105Z,28.20
2018-08-20T18:19:18.436Z,28.10
2018-08-20T18:21:46.811Z,28.00
2018-08-20T18:24:16.979Z,27.90
2018-08-20T18:26:46.660Z,27.70
2018-08-20T18:29:14.968Z,27.60
2018-08-20T18:31:43.187Z,27.50
2018-08-20T18:34:11.350Z,27.50
2018-08-20T18:36:39.531Z,27.40
2018-08-20T18:39:09.963Z,27.30
2018-08-20T18:42:17.824Z,27.20
2018-08-20T18:44:47.049Z,27.00
2018-08-20T18:47:16.516Z,26.80
2018-08-20T18:49:50.835Z,26.70
2018-08-20T18:52:25.676Z,26.50
2018-08-20T18:54:55.146Z,26.40
2018-08-20T18:57:30.478Z,26.30
2018-08-20T18:59:59.648Z,26.20
2018-08-20T19:02:38.053Z,26.20
2018-08-20T19:05:08.467Z,26.20
2018-08-20T19:07:36.731Z,26.10
2018-08-20T19:10:07.033Z,26.30
2018-08-20T19:12:35.373Z,26.20
2018-08-20T19:15:15.420Z,26.30
2018-08-20T19:17:43.583Z,26.20
2018-08-20T19:20:11.768Z,26.00
2018-08-20T19:22:39.920Z,26.00
2018-08-20T19:25:08.149Z,26.00
2018-08-20T19:27:36.382Z,26.10
2018-08-20T19:32:40.886Z,25.90
2018-08-20T19:35:09.140Z,25.80
2018-08-20T19:37:37.367Z,25.80
2018-08-20T19:40:06.364Z,25.90
2018-08-20T19:42:34.962Z,25.90
2018-08-20T19:45:05.173Z,25.90
2018-08-20T19:47:33.772Z,25.80
2018-08-20T19:50:09.239Z,25.70
2018-08-20T19:52:37.456Z,25.80
2018-08-20T19:55:07.414Z,25.70
2018-08-20T19:57:35.702Z,25.70
2018-08-20T20:00:06.999Z,25.70
2018-08-20T20:02:35.207Z,25.60
2018-08-20T20:05:05.026Z,25.50
2018-08-20T20:07:34.490Z,25.50
2018-08-20T20:10:07.692Z,25.40
2018-08-20T20:12:40.122Z,25.30
2018-08-20T20:15:08.514Z,25.20
2018-08-20T20:17:36.825Z,25.30
2018-08-20T20:20:05.276Z,25.30
2018-08-20T20:22:33.550Z,25.20
2018-08-20T20:25:01.894Z,25.10
2018-08-20T20:27:30.296Z,25.10
2018-08-20T20:29:58.619Z,25.00
2018-08-20T20:32:26.905Z,25.00
2018-08-20T20:34:55.296Z,24.70
2018-08-20T20:37:23.556Z,24.70
2018-08-20T20:42:25.335Z,24.60
2018-08-20T20:44:53.736Z,24.60
2018-08-20T20:47:22.152Z,24.60
2018-08-20T20:49:50.465Z,24.70
2018-08-20T20:52:18.704Z,24.60
2018-08-20T20:54:46.898Z,24.50
2018-08-20T20:57:15.097Z,24.50
2018-08-20T20:59:43.251Z,24.30
2018-08-20T21:02:11.440Z,24.20
2018-08-20T21:04:39.774Z,24.20
2018-08-20T21:07:07.928Z,24.10
2018-08-20T21:09:41.434Z,24.10
2018-08-20T21:12:09.607Z,24.10
2018-08-20T21:14:37.837Z,24.00
2018-08-20T21:17:05.984Z,24.00
2018-08-20T21:19:34.758Z,24.00
2018-08-20T21:22:05.378Z,24.00
2018-08-20T21:24:33.568Z,24.10
2018-08-20T21:27:01.781Z,24.20
2018-08-20T21:29:30.327Z,24.10
2018-08-20T21:31:58.476Z,24.20
2018-08-20T21:34:29.527Z,24.10
2018-08-20T21:36:57.701Z,23.90
2018-08-20T21:39:25.868Z,24.00
2018-08-20T21:44:22.274Z,23.80
2018-08-20T21:46:50.491Z,23.80
2018-08-20T21:49:18.718Z,23.80
2018-08-20T21:51:52.378Z,23.80
2018-08-20T21:54:26.107Z,23.70
2018-08-20T21:59:28.921Z,23.60
2018-08-20T22:01:57.127Z,23.40
2018-08-20T22:04:25.367Z,23.40
2018-08-20T22:06:53.573Z,23.40
2018-08-20T22:09:21.876Z,23.40
2018-08-20T22:11:53.546Z,23.40
2018-08-20T22:14:21.792Z,23.50
2018-08-20T22:16:50.035Z,23.40
2018-08-20T22:19:18.331Z,23.40
2018-08-20T22:21:46.567Z,23.40
2018-08-20T22:24:14.784Z,23.40
2018-08-20T22:26:50.086Z,23.20
2018-08-20T22:29:18.867Z,23.20
2018-08-20T22:31:52.451Z,23.00
2018-08-20T22:34:20.728Z,22.70
2018-08-20T22:36:53.444Z,22.60
2018-08-20T22:39:21.747Z,22.50
2018-08-20T22:44:17.975Z,22.40
2018-08-20T22:46:46.183Z,22.50
2018-08-20T22:49:14.408Z,22.50
2018-08-20T22:51:42.656Z,22.40
2018-08-20T22:54:10.888Z,22.40
2018-08-20T22:56:39.163Z,22.20
2018-08-20T22:59:11.067Z,22.10
2018-08-20T23:01:39.375Z,22.00
2018-08-20T23:04:08.060Z,22.00
2018-08-20T23:06:36.364Z,22.20
2018-08-20T23:09:21.315Z,22.20
2018-08-20T23:11:49.548Z,22.10
2018-08-20T23:14:17.787Z,22.00
2018-08-20T23:16:48.652Z,21.80
2018-08-20T23:19:16.932Z,21.60
2018-08-20T23:21:46.260Z,21.90
2018-08-20T23:24:15.259Z,22.00
2018-08-20T23:26:43.511Z,22.00
2018-08-20T23:29:12.005Z,21.90
2018-08-20T23:31:40.578Z,21.90
2018-08-20T23:34:10.097Z,21.90
2018-08-20T23:36:38.474Z,21.80
2018-08-20T23:39:08.936Z,21.70
2018-08-20T23:41:37.239Z,21.90
2018-08-20T23:44:05.459Z,21.70
2018-08-20T23:46:38.519Z,21.70
2018-08-20T23:51:34.907Z,21.70
2018-08-20T23:54:03.338Z,21.70
2018-08-20T23:56:31.585Z,21.50
2018-08-20T23:59:00.059Z,21.50
